createdAt,value
2023-06-01T00:00:09.234Z,53.43
2023-06-01T00:02:44.396Z,52.11
2023-06-01T00:05:16.790Z,52.67
2023-06-01T00:07:49.177Z,49.12
2023-06-01T00:10:21.487Z,51.07
2023-06-01T00:12:53.781Z,52.56
2023-06-01T00:15:26.174Z,50.43
2023-06-01T00:18:02.307Z,50.18
2023-06-01T00:20:34.605Z,51.34
2023-06-01T00:23:07.767Z,50.04
2023-06-01T00:25:40.053Z,50.71
2023-06-01T00:28:12.446Z,53.26
2023-06-01T00:30:44.695Z,54.19
2023-06-01T00:33:19.610Z,51.76
2023-06-01T00:35:52.085Z,51.41
2023-06-01T00:38:24.503Z,51.84
2023-06-01T00:40:56.855Z,50.19
2023-06-01T00:43:29.153Z,52.12
2023-06-01T00:46:01.574Z,52.26
2023-06-01T00:48:36.709Z,52.10
2023-06-01T00:51:09.277Z,48.79
2023-06-01T00:53:41.615Z,47.91
2023-06-01T00:56:15.587Z,50.46
2023-06-01T00:58:48.515Z,49.73
2023-06-01T01:01:24.145Z,48.16
2023-06-01T01:04:02.248Z,47.12
2023-06-01T01:06:57.750Z,48.16
2023-06-01T01:09:46.484Z,49.71
2023-06-01T01:12:28.108Z,47.04
2023-06-01T01:15:12.075Z,48.08
2023-06-01T01:17:47.683Z,47.60
2023-06-01T01:20:31.898Z,45.91
2023-06-01T01:23:20.784Z,45.72
2023-06-01T01:26:13.683Z,44.84
2023-06-01T01:28:54.869Z,46.24
2023-06-01T01:31:29.641Z,45.64
2023-06-01T01:34:04.209Z,49.21
2023-06-01T01:36:37.268Z,47.89
2023-06-01T01:39:09.542Z,47.54
2023-06-01T01:41:41.759Z,48.69
2023-06-01T01:44:17.607Z,49.08
2023-06-01T01:47:02.916Z,49.76
2023-06-01T01:49:45.892Z,50.29
2023-06-01T01:52:23.066Z,48.64
2023-06-01T01:54:56.687Z,51.06
2023-06-01T01:57:31.102Z,49.32
2023-06-01T02:00:07.139Z,49.96
2023-06-01T02:02:39.799Z,48.63
2023-06-01T02:05:12.508Z,49.80
2023-06-01T02:07:44.915Z,54.53
2023-06-01T02:10:17.500Z,52.16
2023-06-01T02:12:49.745Z,53.61
2023-06-01T02:15:24.710Z,56.01
2023-06-01T02:17:58.016Z,57.69
2023-06-01T02:20:30.401Z,57.74
2023-06-01T02:23:02.713Z,58.19
2023-06-01T02:25:34.961Z,58.49
2023-06-01T02:28:08.450Z,60.36
2023-06-01T02:30:43.334Z,57.12
2023-06-01T02:33:15.729Z,58.99
2023-06-01T02:35:47.985Z,59.02
2023-06-01T02:38:20.491Z,59.75
2023-06-01T02:40:52.738Z,58.75
2023-06-01T02:43:24.985Z,56.67
2023-06-01T02:45:59.860Z,61.08
2023-06-01T02:48:32.149Z,58.89
2023-06-01T02:51:04.540Z,57.91
2023-06-01T02:53:36.835Z,56.13
2023-06-01T02:56:09.388Z,59.81
2023-06-01T02:58:42.855Z,60.29
2023-06-01T03:01:18.182Z,60.09
2023-06-01T03:03:53.792Z,63.16
2023-06-01T03:06:26.708Z,61.10
2023-06-01T03:08:58.931Z,59.79
2023-06-01T03:11:31.191Z,59.14
2023-06-01T03:14:03.418Z,61.56
2023-06-01T03:16:38.859Z,62.46
2023-06-01T03:19:11.274Z,61.97
2023-06-01T03:21:43.651Z,61.04
2023-06-01T03:24:15.847Z,61.56
2023-06-01T03:26:48.241Z,63.15
2023-06-01T03:29:21.439Z,62.99
2023-06-01T03:31:56.556Z,63.16
2023-06-01T03:34:33.990Z,62.16
2023-06-01T03:37:06.296Z,63.03
2023-06-01T03:39:38.582Z,61.56
2023-06-01T03:42:11.436Z,60.96
2023-06-01T03:44:45.212Z,62.59
2023-06-01T03:47:20.289Z,63.69
2023-06-01T03:49:52.518Z,63.41
2023-06-01T03:52:25.061Z,66.37
2023-06-01T03:54:57.334Z,61.06
2023-06-01T03:57:29.624Z,62.54
2023-06-01T04:00:02.901Z,63.21
2023-06-01T04:02:41.533Z,63.64
2023-06-01T04:05:18.043Z,61.59
2023-06-01T04:07:51.416Z,64.51
2023-06-01T04:10:24.294Z,62.94
2023-06-01T04:12:56.648Z,63.15
2023-06-01T04:15:29.046Z,62.01
2023-06-01T04:18:04.453Z,64.35
2023-06-01T04:20:36.761Z,63.09
2023-06-01T04:23:09.024Z,62.99
2023-06-01T04:25:45.410Z,62.83
2023-06-01T04:28:18.368Z,61.73
2023-06-01T04:30:52.482Z,59.27
2023-06-01T04:33:29.118Z,60.97
2023-06-01T04:36:02.319Z,59.04
2023-06-01T04:38:36.242Z,58.44
2023-06-01T04:41:08.482Z,55.84
2023-06-01T04:43:40.990Z,59.49
2023-06-01T04:46:13.247Z,54.50
2023-06-01T04:48:48.269Z,52.26
2023-06-01T04:51:21.043Z,52.04
2023-06-01T04:53:54.927Z,53.59
2023-06-01T04:56:30.813Z,53.96
2023-06-01T04:59:06.395Z,52.10
2023-06-01T05:01:44.963Z,53.97
2023-06-01T05:04:19.956Z,52.12
2023-06-01T05:06:52.428Z,51.46
2023-06-01T05:09:24.903Z,54.99
2023-06-01T05:12:03.260Z,50.75
2023-06-01T05:14:35.717Z,52.69
2023-06-01T05:17:08.542Z,54.63
2023-06-01T05:19:43.325Z,56.89
2023-06-01T05:22:15.892Z,55.84
2023-06-01T05:24:48.180Z,55.65
2023-06-01T05:27:22.695Z,56.99
2023-06-01T05:29:55.027Z,58.42
2023-06-01T05:32:27.280Z,58.76
2023-06-01T05:35:02.142Z,59.51
2023-06-01T05:37:34.318Z,59.84
2023-06-01T05:40:09.047Z,59.26
2023-06-01T05:42:41.393Z,58.32
2023-06-01T05:45:15.279Z,59.04
2023-06-01T05:47:47.555Z,57.52
2023-06-01T05:50:22.541Z,58.41
2023-06-01T05:52:54.813Z,58.22
2023-06-01T05:55:27.224Z,57.59
2023-06-01T05:57:59.533Z,57.44
2023-06-01T06:00:31.915Z,55.05
2023-06-01T06:03:05.593Z,56.65
2023-06-01T06:05:40.522Z,55.74
2023-06-01T06:08:12.777Z,54.84
2023-06-01T06:10:45.301Z,56.24
2023-06-01T06:13:18.954Z,56.61
2023-06-01T06:15:51.304Z,55.13
2023-06-01T06:18:23.524Z,55.40
2023-06-01T06:20:58.412Z,58.31
2023-06-01T06:23:31.615Z,54.71
2023-06-01T06:26:03.952Z,55.71
2023-06-01T06:28:36.239Z,57.31
2023-06-01T06:31:08.616Z,54.53
2023-06-01T06:33:40.953Z,56.22
2023-06-01T06:36:15.823Z,56.06
2023-06-01T06:38:48.721Z,55.69
2023-06-01T06:41:22.297Z,58.69
2023-06-01T06:43:54.568Z,56.41
2023-06-01T06:46:27.274Z,58.01
2023-06-01T06:49:04.226Z,56.75
2023-06-01T06:51:39.134Z,57.82
2023-06-01T06:54:12.085Z,55.76
2023-06-01T06:56:45.779Z,58.19
2023-06-01T06:59:18.200Z,57.74
2023-06-01T07:01:50.524Z,57.66
2023-06-01T07:04:22.824Z,59.42
2023-06-01T07:06:57.936Z,59.51
2023-06-01T07:09:30.150Z,59.26
2023-06-01T07:12:02.622Z,61.06
2023-06-01T07:14:34.866Z,62.08
2023-06-01T07:17:07.444Z,57.83
2023-06-01T07:19:39.661Z,58.52
2023-06-01T07:22:14.961Z,57.63
2023-06-01T07:24:47.362Z,56.27
2023-06-01T07:27:20.918Z,57.01
2023-06-01T07:29:56.388Z,51.72
2023-06-01T07:32:29.580Z,52.54
2023-06-01T07:35:03.036Z,54.74
2023-06-01T07:37:37.940Z,53.32
2023-06-01T07:40:12.975Z,54.91
2023-06-01T07:42:45.228Z,53.55
2023-06-01T07:45:18.870Z,52.86
2023-06-01T08:07:17.697Z,51.33
2023-06-01T08:09:50.763Z,50.15
2023-06-01T08:12:23.351Z,47.26
2023-06-01T08:18:15.674Z,48.19
2023-06-01T08:20:48.287Z,46.58
2023-06-01T08:23:23.920Z,46.11
2023-06-01T08:25:56.287Z,44.04
2023-06-01T08:28:28.524Z,43.56
2023-06-01T08:31:01.034Z,44.04
2023-06-01T08:33:33.626Z,45.92
2023-06-01T08:36:06.754Z,41.71
2023-06-01T08:38:41.617Z,43.09
2023-06-01T08:41:25.372Z,43.29
2023-06-01T08:44:02.206Z,47.01
2023-06-01T08:46:37.683Z,44.87
2023-06-01T08:49:15.519Z,44.92
2023-06-01T08:51:49.683Z,45.09
2023-06-01T08:54:25.959Z,43.59
2023-06-01T08:56:59.426Z,45.76
2023-06-01T08:59:31.881Z,46.36
2023-06-01T09:02:04.172Z,45.59
2023-06-01T09:04:43.071Z,46.17
2023-06-01T09:07:15.621Z,50.71
2023-06-01T09:09:50.750Z,45.84
2023-06-01T09:12:26.941Z,44.99
2023-06-01T09:15:17.817Z,45.95
2023-06-01T09:17:52.564Z,42.64
2023-06-01T09:20:30.229Z,42.62
2023-06-01T09:23:02.944Z,42.21
2023-06-01T09:25:39.457Z,41.29
2023-06-01T09:28:11.700Z,39.73
2023-06-01T09:30:46.648Z,40.51
2023-06-01T09:33:21.722Z,41.32
2023-06-01T09:35:55.046Z,38.71
2023-06-01T09:38:29.951Z,41.44
2023-06-01T09:41:07.021Z,40.21
2023-06-01T09:43:40.762Z,40.99
2023-06-01T09:46:15.576Z,41.15
2023-06-01T09:48:48.116Z,41.86
2023-06-01T09:51:31.190Z,41.75
2023-06-01T09:54:03.504Z,42.98
2023-06-01T09:56:48.199Z,43.68
2023-06-01T09:59:20.722Z,43.86
2023-06-01T10:01:56.230Z,43.99
2023-06-01T10:04:31.045Z,45.73
2023-06-01T10:07:04.863Z,46.54
2023-06-01T10:09:41.598Z,44.53
2023-06-01T10:12:16.782Z,47.66
2023-06-01T10:14:49.149Z,46.55
2023-06-01T10:17:22.720Z,43.04
2023-06-01T10:19:56.155Z,44.69
2023-06-01T10:22:28.547Z,45.39
2023-06-01T10:25:03.977Z,43.51
2023-06-01T10:27:47.093Z,41.06
2023-06-01T10:30:19.880Z,41.98
2023-06-01T10:32:55.512Z,41.49
2023-06-01T10:36:07.017Z,42.21
2023-06-01T10:38:39.520Z,47.64
2023-06-01T10:41:33.383Z,45.54
2023-06-01T10:44:08.253Z,45.31
2023-06-01T10:46:46.122Z,41.31
2023-06-01T10:49:18.798Z,43.01
2023-06-01T10:51:51.054Z,44.06
2023-06-01T10:54:34.872Z,38.43
2023-06-01T10:57:29.140Z,39.34
2023-06-01T11:00:20.085Z,37.13
2023-06-01T11:02:55.255Z,37.26
2023-06-01T11:05:48.188Z,35.19
2023-06-01T11:08:50.867Z,35.74
2023-06-01T11:11:24.506Z,31.14
2023-06-01T11:14:13.078Z,30.17
2023-06-01T11:16:48.600Z,30.41
2023-06-01T11:19:25.831Z,28.73
2023-06-01T11:22:03.753Z,29.98
2023-06-01T11:24:38.665Z,27.13
2023-06-01T11:27:13.695Z,26.78
2023-06-01T11:29:53.202Z,27.30
2023-06-01T11:32:32.553Z,27.03
2023-06-01T11:35:04.839Z,28.10
2023-06-01T11:37:37.163Z,28.13
2023-06-01T11:40:15.599Z,29.33
2023-06-01T11:42:48.086Z,29.61
2023-06-01T11:45:22.616Z,29.04
2023-06-01T11:47:57.716Z,28.12
2023-06-01T11:50:33.256Z,27.80
2023-06-01T11:53:05.979Z,27.91
2023-06-01T11:55:38.388Z,29.84
2023-06-01T11:58:11.437Z,27.75
2023-06-01T12:00:44.000Z,26.00
2023-06-01T12:03:19.133Z,26.45
2023-06-01T12:05:52.701Z,27.04
2023-06-01T12:08:29.688Z,26.15
2023-06-01T12:11:06.233Z,27.41
2023-06-01T12:13:38.456Z,25.51
2023-06-01T12:16:21.751Z,26.97
2023-06-01T12:18:57.780Z,28.22
2023-06-01T12:21:30.164Z,26.34
2023-06-01T12:24:03.124Z,26.88
2023-06-01T12:26:41.851Z,22.26
2023-06-01T12:29:14.105Z,26.21
2023-06-01T12:31:58.142Z,25.21
2023-06-01T12:34:33.137Z,27.89
2023-06-01T12:37:15.497Z,26.09
2023-06-01T12:39:48.069Z,24.79
2023-06-01T12:42:20.328Z,26.46
2023-06-01T12:45:00.231Z,26.56
2023-06-01T12:47:32.533Z,26.58
2023-06-01T12:50:13.870Z,27.16
2023-06-01T12:52:47.583Z,27.71
2023-06-01T12:55:21.373Z,26.84
2023-06-01T12:57:57.944Z,27.16
2023-06-01T13:00:39.473Z,27.27
2023-06-01T13:03:23.825Z,26.96
2023-06-01T13:05:58.940Z,24.37
2023-06-01T13:08:31.697Z,22.54
2023-06-01T13:11:04.256Z,23.24
2023-06-01T13:13:37.210Z,21.91
2023-06-01T13:16:10.832Z,22.41
2023-06-01T13:18:43.130Z,22.57
2023-06-01T13:21:18.397Z,20.84
2023-06-01T13:23:50.661Z,21.49
2023-06-01T13:26:23.596Z,21.93
2023-06-01T13:28:56.140Z,23.29
2023-06-01T13:31:28.804Z,23.09
2023-06-01T13:34:01.030Z,23.19
2023-06-01T13:36:36.870Z,21.08
2023-06-01T13:39:11.600Z,17.81
2023-06-01T13:41:44.324Z,18.28
2023-06-01T13:44:18.678Z,18.84
2023-06-01T13:46:51.018Z,17.29
2023-06-01T13:49:23.511Z,18.15
2023-06-01T13:51:58.571Z,17.06
2023-06-01T13:54:30.754Z,16.60
2023-06-01T13:57:06.860Z,17.55
2023-06-01T13:59:39.637Z,17.39
2023-06-01T14:02:12.986Z,18.14
2023-06-01T14:04:49.146Z,17.92
2023-06-01T14:07:26.268Z,16.94
2023-06-01T14:09:58.881Z,16.70
2023-06-01T14:12:31.343Z,16.43
2023-06-01T14:15:03.519Z,18.34
2023-06-01T14:17:35.861Z,17.08
2023-06-01T14:20:09.709Z,15.20
2023-06-01T14:22:44.633Z,15.01
2023-06-01T14:25:17.306Z,17.94
2023-06-01T14:27:49.547Z,18.81
2023-06-01T14:30:22.062Z,17.55
2023-06-01T14:32:54.341Z,15.36
2023-06-01T14:35:27.795Z,14.37
2023-06-01T14:38:02.646Z,13.10
2023-06-01T14:40:34.950Z,13.76
2023-06-01T14:43:07.173Z,13.21
2023-06-01T14:45:39.496Z,14.59
2023-06-01T14:48:11.971Z,14.26
2023-06-01T14:50:44.511Z,14.39
2023-06-01T14:53:19.611Z,15.06
2023-06-01T14:55:51.900Z,13.99
2023-06-01T14:58:24.238Z,13.39
2023-06-01T15:00:56.897Z,16.63
2023-06-01T15:03:29.310Z,15.49
2023-06-01T15:06:01.975Z,16.06
2023-06-01T15:08:37.076Z,17.58
2023-06-01T15:11:09.499Z,16.05
2023-06-01T15:13:43.259Z,14.56
2023-06-01T15:16:15.723Z,17.10
2023-06-01T15:18:48.188Z,18.70
2023-06-01T15:21:20.462Z,17.89
2023-06-01T15:23:55.418Z,15.82
2023-06-01T15:26:27.718Z,16.84
2023-06-01T15:29:00.061Z,16.36
2023-06-01T15:31:32.664Z,16.11
2023-06-01T15:34:06.442Z,18.08
2023-06-01T15:36:38.717Z,19.64
2023-06-01T15:39:14.627Z,19.58
2023-06-01T15:41:47.072Z,20.01
2023-06-01T15:44:19.486Z,20.75
2023-06-01T15:46:52.197Z,20.91
2023-06-01T15:49:24.728Z,21.95
2023-06-01T15:51:56.930Z,21.75
2023-06-01T15:54:31.760Z,22.18
2023-06-01T15:57:05.270Z,25.99
2023-06-01T15:59:37.773Z,22.20
2023-06-01T16:02:11.089Z,21.37
2023-06-01T16:04:43.379Z,23.42
2023-06-01T16:07:15.751Z,21.99
2023-06-01T16:09:55.674Z,21.30
2023-06-01T16:12:28.971Z,22.96
2023-06-01T16:15:01.192Z,22.04
2023-06-01T16:17:35.300Z,25.29
2023-06-01T16:20:08.432Z,24.52
2023-06-01T16:22:40.657Z,26.94
2023-06-01T16:25:15.700Z,26.77
2023-06-01T16:27:47.935Z,26.59
2023-06-01T16:30:20.511Z,25.59
2023-06-01T16:32:53.583Z,26.16
2023-06-01T16:35:25.953Z,25.74
2023-06-01T16:37:58.279Z,23.90
2023-06-01T16:40:33.310Z,22.69
2023-06-01T16:43:05.619Z,24.48
2023-06-01T16:45:37.985Z,24.07
2023-06-01T16:48:11.157Z,25.70
2023-06-01T16:50:45.304Z,25.79
2023-06-01T16:53:18.541Z,29.47
2023-06-01T16:56:14.070Z,27.92
2023-06-01T16:58:46.373Z,29.69
2023-06-01T17:01:18.619Z,27.68
2023-06-01T17:03:51.117Z,27.15
2023-06-01T17:06:24.443Z,27.24
2023-06-01T17:08:59.753Z,26.53
2023-06-01T17:11:34.553Z,27.53
2023-06-01T17:14:06.775Z,25.38
2023-06-01T17:16:39.164Z,25.25
2023-06-01T17:19:12.904Z,25.22
2023-06-01T17:21:45.692Z,26.36
2023-06-01T17:24:17.998Z,25.24
2023-06-01T17:26:52.940Z,25.54
2023-06-01T17:29:25.376Z,24.46
2023-06-01T17:31:57.660Z,25.06
2023-06-01T17:34:29.892Z,25.07
2023-06-01T17:37:02.411Z,24.40
2023-06-01T17:39:34.843Z,26.06
2023-06-01T17:42:10.395Z,24.44
2023-06-01T17:44:42.584Z,23.78
2023-06-01T17:47:14.836Z,21.92
2023-06-01T17:49:47.151Z,22.14
2023-06-01T17:52:19.511Z,22.05
2023-06-01T17:54:51.795Z,20.85
2023-06-01T17:57:26.716Z,20.71
2023-06-01T17:59:59.136Z,22.30
2023-06-01T18:02:31.384Z,21.62
2023-06-01T18:05:03.661Z,23.55
2023-06-01T18:07:35.894Z,22.86
2023-06-01T18:10:08.595Z,22.34
2023-06-01T18:12:43.451Z,19.11
2023-06-01T18:15:16.101Z,20.31
2023-06-01T18:17:48.488Z,20.34
2023-06-01T18:20:20.834Z,21.36
2023-06-01T18:22:56.167Z,23.61
2023-06-01T18:25:28.468Z,22.68
2023-06-01T18:28:03.246Z,21.86
2023-06-01T18:30:35.768Z,21.27
2023-06-01T18:33:08.294Z,19.52
2023-06-01T18:35:40.709Z,19.31
2023-06-01T18:38:12.980Z,20.28
2023-06-01T18:40:45.207Z,19.02
2023-06-01T18:43:20.144Z,18.76
2023-06-01T18:45:52.442Z,18.52
2023-06-01T18:48:25.947Z,18.24
2023-06-01T18:50:58.489Z,17.93
2023-06-01T18:53:30.760Z,17.94
2023-06-01T18:56:03.353Z,17.27
2023-06-01T18:58:38.301Z,18.38
2023-06-01T19:01:12.512Z,16.97
2023-06-01T19:03:47.639Z,18.32
2023-06-01T19:06:19.943Z,17.34
2023-06-01T19:08:54.664Z,16.69
2023-06-01T19:11:27.815Z,18.02
2023-06-01T19:14:02.646Z,18.63
2023-06-01T19:16:35.782Z,16.72
2023-06-01T19:19:08.328Z,19.32
2023-06-01T19:21:40.738Z,18.01
2023-06-01T19:24:16.022Z,18.76
2023-06-01T19:26:48.984Z,18.82
2023-06-01T19:29:25.023Z,18.43
2023-06-01T19:31:57.324Z,21.06
2023-06-01T19:34:30.716Z,20.01
2023-06-01T19:37:02.979Z,20.21
2023-06-01T19:39:42.574Z,21.04
2023-06-01T19:42:39.831Z,20.46
2023-06-01T19:45:25.759Z,20.20
2023-06-01T19:47:58.941Z,19.28
2023-06-01T19:50:46.383Z,20.23
2023-06-01T19:53:20.320Z,19.37
2023-06-01T19:55:52.782Z,18.94
2023-06-01T19:58:25.134Z,19.37
2023-06-01T20:01:01.867Z,21.71
2023-06-01T20:03:41.429Z,21.51
2023-06-01T20:06:18.177Z,21.91
2023-06-01T20:08:51.179Z,21.62
2023-06-01T20:11:23.479Z,20.69
2023-06-01T20:13:55.697Z,23.22
2023-06-01T20:16:30.594Z,23.45
2023-06-01T20:19:02.930Z,21.42
2023-06-01T20:21:35.193Z,22.45
2023-06-01T20:24:07.624Z,23.34
2023-06-01T20:26:40.227Z,23.22
2023-06-01T20:29:21.194Z,23.94
2023-06-01T20:32:00.239Z,24.29
2023-06-01T20:34:34.370Z,22.87
2023-06-01T20:37:09.126Z,22.37
2023-06-01T20:39:41.613Z,22.97
2023-06-01T20:42:13.820Z,22.86
2023-06-01T20:44:46.287Z,22.94
2023-06-01T20:47:22.682Z,20.58
2023-06-01T20:49:55.099Z,23.21
2023-06-01T20:52:27.306Z,23.78
2023-06-01T20:55:01.878Z,23.42
2023-06-01T20:57:34.140Z,24.26
2023-06-01T21:00:06.434Z,23.69
2023-06-01T21:02:41.285Z,22.64
2023-06-01T21:05:13.881Z,22.49
2023-06-01T21:07:46.051Z,23.45
2023-06-01T21:10:18.457Z,21.80
2023-06-01T21:12:50.737Z,22.96
2023-06-01T21:15:22.997Z,22.36
2023-06-01T21:17:57.956Z,22.02
2023-06-01T21:20:30.691Z,22.01
2023-06-01T21:23:02.928Z,23.59
2023-06-01T21:25:35.136Z,24.47
2023-06-01T21:28:07.330Z,22.77
2023-06-01T21:30:43.306Z,23.06
2023-06-01T21:33:18.458Z,25.34
2023-06-01T21:35:50.978Z,24.69
2023-06-01T21:38:23.327Z,24.26
2023-06-01T21:40:56.081Z,23.88
2023-06-01T21:43:28.863Z,25.53
2023-06-01T21:46:01.437Z,25.17
2023-06-01T21:48:36.942Z,25.50
2023-06-01T21:51:09.200Z,26.06
2023-06-01T21:53:41.507Z,25.53
2023-06-01T21:56:14.087Z,23.54
2023-06-01T21:58:47.653Z,24.88
2023-06-01T22:01:19.984Z,23.44
2023-06-01T22:03:54.974Z,23.18
2023-06-01T22:06:27.336Z,22.86
2023-06-01T22:08:59.773Z,22.80
2023-06-01T22:11:32.069Z,22.99
2023-06-01T22:14:04.364Z,22.46
2023-06-01T22:16:36.709Z,21.41
2023-06-01T22:19:11.784Z,23.61
2023-06-01T22:21:44.239Z,25.39
2023-06-01T22:24:16.617Z,23.30
2023-06-01T22:26:48.862Z,24.28
2023-06-01T22:29:21.257Z,23.84
2023-06-01T22:31:53.586Z,24.78
2023-06-01T22:34:28.567Z,23.40
2023-06-01T22:37:00.851Z,24.20
2023-06-01T22:39:33.141Z,22.48
2023-06-01T22:42:05.439Z,22.23
2023-06-01T22:44:37.867Z,22.15
2023-06-01T22:47:13.955Z,23.22
2023-06-01T22:49:53.958Z,22.94
2023-06-01T22:52:27.288Z,23.94
2023-06-01T22:55:00.026Z,24.47
2023-06-01T22:57:32.308Z,22.44
2023-06-01T23:00:07.925Z,21.88
2023-06-01T23:02:40.352Z,23.49
2023-06-01T23:05:18.122Z,22.90
2023-06-01T23:07:50.987Z,22.44
2023-06-01T23:10:23.466Z,24.15
2023-06-01T23:12:58.152Z,23.29
2023-06-01T23:15:31.808Z,22.21
2023-06-01T23:18:04.480Z,21.64
2023-06-01T23:20:39.571Z,22.55
2023-06-01T23:23:13.460Z,23.14
2023-06-01T23:25:45.912Z,23.81
2023-06-01T23:28:18.203Z,24.19
2023-06-01T23:30:50.673Z,23.29
2023-06-01T23:33:22.933Z,23.09
2023-06-01T23:35:57.790Z,23.75
2023-06-01T23:38:30.590Z,22.67
2023-06-01T23:41:02.869Z,22.98
2023-06-01T23:43:35.278Z,22.44
2023-06-01T23:46:07.574Z,24.51
2023-06-01T23:48:40.165Z,22.99
2023-06-01T23:51:15.249Z,22.38
2023-06-01T23:53:47.623Z,22.49
2023-06-01T23:56:20.112Z,23.36
2023-06-01T23:58:52.553Z,23.26
